createdAt,value
2019-03-21T00:00:12.348Z,313.38
2019-03-21T00:01:12.349Z,313.13
2019-03-21T00:02:12.343Z,312.72
2019-03-21T00:03:12.344Z,312.84
2019-03-21T00:04:12.309Z,313.20
2019-03-21T00:05:12.294Z,312.83
2019-03-21T00:06:12.278Z,312.43
2019-03-21T00:07:12.277Z,312.58
2019-03-21T00:08:12.262Z,312.97
2019-03-21T00:09:12.293Z,312.52
2019-03-21T00:10:12.242Z,312.85
2019-03-21T00:11:12.231Z,313.05
2019-03-21T00:12:12.216Z,312.80
2019-03-21T00:13:12.211Z,313.21
2019-03-21T00:14:12.217Z,313.00
2019-03-21T00:15:12.191Z,313.14
2019-03-21T00:16:13.573Z,313.26
2019-03-21T00:17:12.159Z,313.49
2019-03-21T00:18:12.145Z,313.45
2019-03-21T00:19:12.173Z,312.96
2019-03-21T00:20:12.145Z,313.19
2019-03-21T00:21:12.122Z,312.77
2019-03-21T00:22:12.113Z,313.37
2019-03-21T00:23:12.096Z,313.75
2019-03-21T00:24:12.089Z,312.90
2019-03-21T00:25:12.126Z,313.59
2019-03-21T00:26:12.059Z,313.04
2019-03-21T00:27:12.058Z,312.71
2019-03-21T00:28:12.052Z,312.52
2019-03-21T00:29:12.033Z,313.10
2019-03-21T00:30:12.055Z,312.58
2019-03-21T00:31:12.005Z,313.41
2019-03-21T00:32:11.992Z,312.49
2019-03-21T00:33:11.993Z,313.37
2019-03-21T00:34:11.976Z,313.23
2019-03-21T00:35:12.008Z,313.38
2019-03-21T00:36:11.967Z,312.98
2019-03-21T00:37:11.941Z,313.09
2019-03-21T00:38:11.944Z,313.90
2019-03-21T00:39:11.927Z,313.81
2019-03-21T00:40:11.915Z,312.46
2019-03-21T00:41:11.930Z,312.78
2019-03-21T00:42:11.896Z,313.00
2019-03-21T00:43:11.874Z,312.63
2019-03-21T00:44:18.072Z,312.73
2019-03-21T00:45:12.855Z,312.48
2019-03-21T00:46:11.864Z,313.15
2019-03-21T00:47:11.862Z,312.67
2019-03-21T00:48:11.838Z,312.58
2019-03-21T00:49:11.801Z,312.37
2019-03-21T00:50:11.788Z,312.75
2019-03-21T00:51:11.787Z,312.94
2019-03-21T00:52:11.791Z,312.95
2019-03-21T00:53:11.768Z,312.75
2019-03-21T00:54:11.769Z,312.64
2019-03-21T00:55:11.737Z,313.27
2019-03-21T00:56:11.737Z,312.91
2019-03-21T00:57:11.741Z,312.81
2019-03-21T00:58:11.770Z,312.98
2019-03-21T00:59:11.703Z,313.12
2019-03-21T01:00:11.697Z,313.09
2019-03-21T01:01:11.692Z,312.42
2019-03-21T01:02:11.672Z,312.15
2019-03-21T01:03:11.670Z,312.24
2019-03-21T01:04:11.639Z,312.40
2019-03-21T01:05:11.641Z,312.70
2019-03-21T01:06:11.627Z,312.56
2019-03-21T01:07:11.606Z,312.56
2019-03-21T01:08:11.629Z,312.76
2019-03-21T01:09:11.581Z,312.91
2019-03-21T01:10:11.574Z,312.01
2019-03-21T01:11:11.583Z,312.12
2019-03-21T01:12:11.558Z,312.39
2019-03-21T01:13:11.552Z,312.63
2019-03-21T01:14:11.587Z,312.65
2019-03-21T01:15:11.521Z,312.99
2019-03-21T01:16:11.513Z,312.33
2019-03-21T01:17:11.497Z,312.39
2019-03-21T01:18:11.491Z,312.35
2019-03-21T01:19:11.508Z,311.86
2019-03-21T01:20:11.470Z,312.08
2019-03-21T01:21:11.459Z,312.87
2019-03-21T01:22:11.450Z,313.38
2019-03-21T01:23:11.456Z,313.65
2019-03-21T01:24:11.459Z,313.22
2019-03-21T01:25:11.423Z,312.66
2019-03-21T01:26:11.411Z,313.16
2019-03-21T01:27:11.383Z,312.65
2019-03-21T01:28:11.376Z,312.21
2019-03-21T01:29:11.397Z,312.83
2019-03-21T01:30:11.362Z,312.73
2019-03-21T01:31:11.352Z,312.52
2019-03-21T01:32:11.347Z,312.73
2019-03-21T01:33:11.332Z,312.89
2019-03-21T01:34:11.334Z,312.95
2019-03-21T01:35:11.320Z,312.12
2019-03-21T01:36:11.296Z,312.77
2019-03-21T01:37:11.307Z,312.07
2019-03-21T01:38:11.276Z,312.34
2019-03-21T01:39:11.262Z,312.34
2019-03-21T01:40:11.272Z,312.83
2019-03-21T01:41:11.233Z,312.32
2019-03-21T01:42:11.229Z,312.65
2019-03-21T01:43:11.218Z,312.71
2019-03-21T01:44:11.219Z,312.16
2019-03-21T01:45:11.200Z,312.57
2019-03-21T01:46:11.207Z,312.68
2019-03-21T01:47:11.192Z,312.31
2019-03-21T01:48:11.167Z,312.64
2019-03-21T01:49:11.140Z,312.21
2019-03-21T01:50:11.131Z,312.50
2019-03-21T01:51:11.170Z,312.49
2019-03-21T01:52:11.126Z,312.75
2019-03-21T01:53:11.097Z,312.48
2019-03-21T01:54:11.087Z,312.37
2019-03-21T01:55:11.537Z,312.29
2019-03-21T01:56:11.074Z,312.05
2019-03-21T01:57:11.097Z,312.00
2019-03-21T01:58:11.059Z,311.84
2019-03-21T01:59:11.034Z,312.23
2019-03-21T02:00:11.025Z,312.38
2019-03-21T02:01:11.023Z,311.96
2019-03-21T02:02:11.030Z,312.24
2019-03-21T02:03:11.021Z,312.20
2019-03-21T02:04:10.996Z,311.70
2019-03-21T02:05:10.982Z,311.81
2019-03-21T02:06:10.965Z,312.45
2019-03-21T02:07:10.945Z,311.99
2019-03-21T02:08:10.963Z,312.56
2019-03-21T02:09:10.940Z,312.31
2019-03-21T02:10:10.937Z,312.05
2019-03-21T02:11:10.904Z,312.65
2019-03-21T02:12:10.894Z,312.34
2019-03-21T02:13:10.881Z,312.00
2019-03-21T02:14:10.891Z,312.30
2019-03-21T02:15:10.865Z,312.94
2019-03-21T02:16:10.854Z,313.01
2019-03-21T02:17:10.849Z,312.67
2019-03-21T02:18:10.857Z,312.88
2019-03-21T02:19:10.840Z,312.47
2019-03-21T02:20:10.804Z,313.06
2019-03-21T02:21:10.793Z,313.11
2019-03-21T02:22:10.785Z,312.60
2019-03-21T02:23:10.811Z,312.13
2019-03-21T02:24:10.779Z,312.16
2019-03-21T02:25:10.751Z,312.52
2019-03-21T02:26:10.735Z,312.45
2019-03-21T02:27:10.739Z,312.61
2019-03-21T02:28:10.734Z,312.77
2019-03-21T02:29:10.749Z,312.28
2019-03-21T02:30:10.706Z,312.63
2019-03-21T02:31:10.698Z,312.85
2019-03-21T02:32:10.677Z,313.17
2019-03-21T02:33:10.692Z,313.71
2019-03-21T02:34:10.661Z,313.27
2019-03-21T02:35:10.673Z,313.07
2019-03-21T02:36:10.654Z,313.09
2019-03-21T02:37:10.631Z,312.71
2019-03-21T02:38:10.627Z,313.26
2019-03-21T02:39:10.596Z,312.75
2019-03-21T02:40:10.601Z,312.73
2019-03-21T02:41:10.597Z,312.39
2019-03-21T02:42:10.573Z,312.43
2019-03-21T02:43:10.556Z,312.27
2019-03-21T02:44:10.550Z,312.91
2019-03-21T02:45:10.588Z,313.22
2019-03-21T02:46:10.639Z,312.97
2019-03-21T02:47:10.526Z,312.60
2019-03-21T02:48:10.506Z,312.57
2019-03-21T02:49:10.498Z,312.91
2019-03-21T02:50:10.477Z,312.67
2019-03-21T02:51:10.470Z,312.34
2019-03-21T02:52:10.463Z,312.42
2019-03-21T02:53:10.479Z,312.23
2019-03-21T02:54:10.432Z,312.21
2019-03-21T02:55:10.437Z,312.43
2019-03-21T02:56:10.428Z,312.37
2019-03-21T02:57:10.418Z,312.42
2019-03-21T02:58:10.391Z,311.85
2019-03-21T02:59:10.393Z,312.74
2019-03-21T03:00:10.375Z,312.15
2019-03-21T03:01:10.411Z,312.35
2019-03-21T03:02:10.378Z,312.34
2019-03-21T03:03:10.333Z,312.98
2019-03-21T03:04:10.327Z,312.18
2019-03-21T03:05:10.316Z,312.27
2019-03-21T03:06:10.296Z,312.58
2019-03-21T03:07:10.301Z,312.93
2019-03-21T03:08:10.300Z,312.87
2019-03-21T03:09:10.274Z,312.80
2019-03-21T03:10:10.263Z,312.25
2019-03-21T03:11:10.952Z,312.52
2019-03-21T03:12:10.231Z,312.45
2019-03-21T03:13:10.269Z,313.18
2019-03-21T03:14:10.221Z,313.60
2019-03-21T03:15:21.983Z,314.03
2019-03-21T03:16:11.315Z,314.61
2019-03-21T03:17:10.179Z,315.38
2019-03-21T03:18:10.163Z,314.10
2019-03-21T03:19:10.198Z,313.72
2019-03-21T03:20:10.154Z,312.40
2019-03-21T03:21:10.146Z,312.73
2019-03-21T03:22:10.166Z,312.47
2019-03-21T03:23:10.107Z,312.66
2019-03-21T03:24:10.119Z,313.65
2019-03-21T03:25:10.095Z,313.19
2019-03-21T03:26:10.101Z,312.89
2019-03-21T03:27:10.075Z,313.34
2019-03-21T03:28:10.065Z,313.33
2019-03-21T03:29:10.067Z,313.83
2019-03-21T03:30:10.075Z,312.98
2019-03-21T03:31:10.042Z,313.48
2019-03-21T03:32:10.028Z,313.03
2019-03-21T03:33:10.014Z,313.07
2019-03-21T03:34:10.024Z,312.97
2019-03-21T03:35:09.979Z,313.81
2019-03-21T03:36:09.992Z,315.10
2019-03-21T03:37:09.976Z,313.54
2019-03-21T03:38:09.950Z,312.82
2019-03-21T03:39:09.964Z,312.53
2019-03-21T03:40:09.932Z,312.85
2019-03-21T03:41:09.921Z,312.97
2019-03-21T03:42:09.918Z,312.92
2019-03-21T03:43:09.892Z,312.06
2019-03-21T03:44:09.908Z,312.78
2019-03-21T03:45:09.899Z,313.02
2019-03-21T03:46:09.861Z,314.42
2019-03-21T03:47:09.859Z,314.82
2019-03-21T03:48:09.834Z,313.38
2019-03-21T03:49:09.820Z,313.00
2019-03-21T03:50:09.835Z,314.02
2019-03-21T03:51:09.807Z,313.56
2019-03-21T03:52:09.794Z,312.57
2019-03-21T03:53:09.789Z,314.10
2019-03-21T03:54:09.777Z,312.99
2019-03-21T03:55:09.767Z,313.06
2019-03-21T03:56:09.764Z,313.52
2019-03-21T03:57:09.731Z,313.16
2019-03-21T03:58:09.751Z,312.88
2019-03-21T03:59:09.722Z,313.50
2019-03-21T04:00:09.729Z,313.20
2019-03-21T04:01:09.714Z,313.09
2019-03-21T04:02:09.709Z,313.02
2019-03-21T04:03:09.686Z,312.95
2019-03-21T04:04:09.665Z,313.21
2019-03-21T04:05:09.659Z,313.04
2019-03-21T04:06:09.648Z,313.55
2019-03-21T04:07:09.627Z,313.26
2019-03-21T04:08:09.633Z,314.00
2019-03-21T04:09:09.599Z,314.11
2019-03-21T04:10:09.586Z,314.32
2019-03-21T04:11:09.593Z,314.59
2019-03-21T04:12:09.597Z,313.39
2019-03-21T04:13:09.576Z,312.95
2019-03-21T04:14:09.552Z,313.41
2019-03-21T04:15:09.535Z,312.92
2019-03-21T04:16:09.523Z,312.95
2019-03-21T04:17:09.541Z,313.70
2019-03-21T04:18:09.516Z,313.40
2019-03-21T04:19:09.494Z,313.95
2019-03-21T04:20:09.478Z,313.61
2019-03-21T04:21:09.487Z,314.28
2019-03-21T04:22:09.593Z,313.83
2019-03-21T04:23:09.465Z,314.23
2019-03-21T04:24:09.444Z,313.90
2019-03-21T04:25:09.434Z,313.98
2019-03-21T04:26:09.444Z,313.60
2019-03-21T04:27:09.426Z,314.27
2019-03-21T04:28:09.393Z,313.80
2019-03-21T04:29:09.385Z,314.07
2019-03-21T04:30:09.367Z,314.06
2019-03-21T04:31:09.370Z,313.64
2019-03-21T04:32:09.360Z,313.44
2019-03-21T04:33:09.363Z,313.35
2019-03-21T04:34:09.328Z,313.37
2019-03-21T04:35:09.325Z,313.75
2019-03-21T04:36:09.308Z,313.69
2019-03-21T04:37:09.303Z,313.03
2019-03-21T04:38:09.282Z,313.42
2019-03-21T04:39:09.291Z,313.37
2019-03-21T04:40:09.287Z,313.93
2019-03-21T04:41:09.256Z,317.55
2019-03-21T04:42:09.240Z,319.52
2019-03-21T04:43:09.231Z,316.96
2019-03-21T04:44:09.237Z,316.50
2019-03-21T04:45:09.215Z,316.00
2019-03-21T04:46:09.202Z,315.01
2019-03-21T04:47:09.186Z,314.52
2019-03-21T04:48:09.165Z,314.07
2019-03-21T04:49:09.209Z,314.53
2019-03-21T04:50:09.185Z,314.15
2019-03-21T04:51:09.146Z,314.55
2019-03-21T04:52:09.136Z,313.65
2019-03-21T04:53:09.116Z,313.51
2019-03-21T04:54:09.109Z,313.29
2019-03-21T04:55:09.125Z,312.79
2019-03-21T04:56:09.096Z,312.78
2019-03-21T04:57:09.083Z,313.44
2019-03-21T04:58:09.067Z,313.37
2019-03-21T04:59:09.051Z,313.32
2019-03-21T05:00:09.079Z,314.22
2019-03-21T05:01:09.025Z,314.36
2019-03-21T05:02:09.026Z,314.48
2019-03-21T05:03:09.021Z,314.07
2019-03-21T05:04:09.001Z,313.72
2019-03-21T05:05:08.988Z,313.95
2019-03-21T05:06:08.989Z,313.61
2019-03-21T05:07:09.020Z,315.38
2019-03-21T05:08:08.969Z,316.51
2019-03-21T05:09:08.953Z,316.59
2019-03-21T05:10:08.939Z,316.87
2019-03-21T05:11:08.929Z,316.81
2019-03-21T05:12:08.903Z,315.70
2019-03-21T05:13:08.894Z,315.29
2019-03-21T05:14:08.880Z,313.78
2019-03-21T05:15:08.884Z,314.50
2019-03-21T05:16:14.627Z,314.60
2019-03-21T05:17:09.854Z,315.41
2019-03-21T05:18:08.848Z,314.80
2019-03-21T05:19:08.830Z,314.68
2019-03-21T05:20:08.828Z,315.31
2019-03-21T05:21:08.821Z,315.77
2019-03-21T05:22:08.822Z,315.85
2019-03-21T05:23:08.785Z,315.95
2019-03-21T05:24:08.776Z,315.70
2019-03-21T05:25:08.764Z,317.03
2019-03-21T05:26:08.746Z,316.49
2019-03-21T05:27:08.800Z,316.58
2019-03-21T05:28:08.742Z,315.11
2019-03-21T05:29:08.739Z,315.50
2019-03-21T05:30:08.719Z,315.86
2019-03-21T05:31:08.689Z,316.06
2019-03-21T05:32:08.684Z,315.60
2019-03-21T05:33:08.706Z,314.63
2019-03-21T05:34:08.667Z,314.88
2019-03-21T05:35:08.660Z,315.51
2019-03-21T05:36:08.658Z,315.89
2019-03-21T05:37:08.637Z,315.83
2019-03-21T05:38:08.625Z,315.84
2019-03-21T05:39:08.637Z,315.18
2019-03-21T05:40:08.630Z,314.65
2019-03-21T05:41:08.598Z,314.67
2019-03-21T05:42:08.594Z,314.52
2019-03-21T05:43:08.573Z,315.10
2019-03-21T05:44:08.573Z,314.73
2019-03-21T05:45:08.555Z,315.02
2019-03-21T05:46:08.548Z,314.68
2019-03-21T05:47:08.526Z,315.62
2019-03-21T05:48:08.507Z,315.46
2019-03-21T05:49:08.526Z,315.17
2019-03-21T05:50:08.490Z,315.35
2019-03-21T05:51:08.484Z,316.16
2019-03-21T05:52:08.476Z,315.51
2019-03-21T05:53:08.452Z,315.33
2019-03-21T05:54:08.448Z,315.80
2019-03-21T05:55:08.460Z,316.38
2019-03-21T05:56:08.432Z,315.77
2019-03-21T05:57:08.421Z,315.64
2019-03-21T05:58:08.402Z,315.81
2019-03-21T05:59:08.418Z,315.46
2019-03-21T06:00:08.416Z,316.19
2019-03-21T06:01:08.364Z,315.61
2019-03-21T06:02:08.366Z,316.25
2019-03-21T06:03:08.358Z,316.02
2019-03-21T06:04:08.340Z,315.65
2019-03-21T06:05:08.351Z,316.06
2019-03-21T06:06:08.321Z,315.86
2019-03-21T06:07:08.312Z,316.10
2019-03-21T06:08:08.293Z,315.58
2019-03-21T06:09:08.316Z,315.85
2019-03-21T06:10:08.277Z,315.86
2019-03-21T06:11:08.263Z,315.12
2019-03-21T06:12:08.247Z,315.89
2019-03-21T06:13:08.240Z,316.96
2019-03-21T06:14:08.235Z,319.52
2019-03-21T06:15:08.235Z,320.02
2019-03-21T06:16:08.214Z,322.81
2019-03-21T06:17:08.206Z,321.87
2019-03-21T06:18:08.193Z,319.99
2019-03-21T06:19:08.167Z,317.17
2019-03-21T06:20:08.177Z,315.73
2019-03-21T06:21:08.148Z,315.71
2019-03-21T06:22:08.141Z,316.08
2019-03-21T06:23:08.135Z,316.13
2019-03-21T06:24:08.122Z,315.24
2019-03-21T06:25:08.140Z,315.66
2019-03-21T06:26:08.092Z,316.05
2019-03-21T06:27:14.489Z,315.63
2019-03-21T06:28:09.106Z,315.57
2019-03-21T06:29:08.065Z,315.30
2019-03-21T06:30:08.054Z,315.20
2019-03-21T06:31:08.053Z,315.71
2019-03-21T06:32:08.029Z,316.20
2019-03-21T06:33:08.013Z,315.92
2019-03-21T06:34:07.998Z,315.19
2019-03-21T06:35:08.033Z,315.63
2019-03-21T06:36:08.023Z,315.41
2019-03-21T06:37:07.981Z,316.96
2019-03-21T06:38:07.971Z,315.88
2019-03-21T06:39:07.958Z,316.30
2019-03-21T06:40:07.941Z,316.14
2019-03-21T06:41:07.940Z,316.30
2019-03-21T06:42:07.962Z,316.47
2019-03-21T06:43:07.917Z,316.42
2019-03-21T06:44:07.904Z,316.35
2019-03-21T06:45:07.877Z,316.19
2019-03-21T06:46:07.877Z,316.08
2019-03-21T06:47:07.902Z,316.71
2019-03-21T06:48:07.862Z,317.14
2019-03-21T06:49:07.887Z,317.84
2019-03-21T06:50:07.836Z,319.00
2019-03-21T06:51:07.818Z,317.23
2019-03-21T06:52:07.819Z,317.26
2019-03-21T06:53:07.799Z,317.17
2019-03-21T06:54:07.802Z,317.01
2019-03-21T06:55:07.793Z,316.23
2019-03-21T06:56:07.770Z,317.40
2019-03-21T06:57:07.752Z,317.00
2019-03-21T06:58:07.757Z,316.96
2019-03-21T06:59:07.771Z,316.06
2019-03-21T07:00:07.775Z,316.14
2019-03-21T07:01:07.731Z,316.41
2019-03-21T07:02:07.721Z,318.49
2019-03-21T07:03:07.700Z,317.41
2019-03-21T07:04:07.752Z,316.52
2019-03-21T07:05:07.705Z,316.90
2019-03-21T07:06:07.685Z,317.47
2019-03-21T07:07:08.665Z,316.77
2019-03-21T07:08:07.645Z,315.57
2019-03-21T07:09:07.622Z,316.23
2019-03-21T07:10:07.649Z,317.02
2019-03-21T07:11:07.598Z,317.17
2019-03-21T07:12:07.590Z,316.30
2019-03-21T07:13:07.582Z,316.49
2019-03-21T07:14:07.577Z,316.20
2019-03-21T07:15:07.548Z,315.64
2019-03-21T07:16:09.423Z,317.33
2019-03-21T07:17:07.532Z,316.61
2019-03-21T07:18:07.526Z,316.70
2019-03-21T07:19:07.512Z,317.29
2019-03-21T07:20:07.507Z,318.27
2019-03-21T07:21:07.527Z,317.52
2019-03-21T07:22:07.488Z,317.85
2019-03-21T07:23:07.461Z,317.14
2019-03-21T07:24:07.456Z,316.35
2019-03-21T07:25:07.439Z,317.61
2019-03-21T07:26:07.427Z,317.54
2019-03-21T07:27:07.449Z,316.91
2019-03-21T07:28:07.458Z,317.46
2019-03-21T07:29:07.436Z,317.65
2019-03-21T07:30:07.555Z,316.76
2019-03-21T07:31:07.379Z,316.38
2019-03-21T07:32:08.254Z,316.42
2019-03-21T07:33:07.359Z,317.09
2019-03-21T07:34:07.354Z,317.11
2019-03-21T07:35:07.334Z,317.17
2019-03-21T07:36:07.321Z,318.90
2019-03-21T07:37:07.338Z,317.58
2019-03-21T07:38:07.311Z,316.75
2019-03-21T07:39:07.307Z,316.80
2019-03-21T07:40:07.296Z,318.14
2019-03-21T07:41:07.274Z,316.29
2019-03-21T07:42:07.290Z,316.77
2019-03-21T07:43:07.275Z,316.79
2019-03-21T07:44:07.239Z,315.82
2019-03-21T07:45:07.234Z,315.54
2019-03-21T07:46:07.216Z,316.21
2019-03-21T07:47:12.749Z,316.74
2019-03-21T07:48:08.185Z,316.37
2019-03-21T07:49:07.175Z,316.79
2019-03-21T07:50:07.175Z,316.31
2019-03-21T07:51:07.190Z,316.35
2019-03-21T07:52:07.153Z,315.35
2019-03-21T07:53:07.168Z,315.86
2019-03-21T07:54:07.149Z,315.40
2019-03-21T07:55:07.120Z,315.33
2019-03-21T07:56:07.110Z,314.57
2019-03-21T07:57:07.103Z,315.62
2019-03-21T07:58:07.189Z,316.09
2019-03-21T07:59:07.081Z,316.31
2019-03-21T08:00:07.062Z,316.21
2019-03-21T08:01:07.053Z,316.63
2019-03-21T08:02:07.026Z,314.66
2019-03-21T08:03:07.082Z,315.18
2019-03-21T08:04:07.024Z,315.00
2019-03-21T08:05:07.005Z,315.51
2019-03-21T08:06:07.001Z,315.24
2019-03-21T08:07:06.995Z,315.68
2019-03-21T08:08:06.974Z,316.22
2019-03-21T08:09:06.970Z,315.64
2019-03-21T08:10:06.944Z,316.05
2019-03-21T08:11:06.934Z,315.51
2019-03-21T08:12:06.929Z,316.04
2019-03-21T08:13:06.927Z,314.88
2019-03-21T08:14:06.951Z,315.62
2019-03-21T08:15:06.895Z,315.67
2019-03-21T08:16:06.869Z,314.97
2019-03-21T08:17:06.878Z,317.07
2019-03-21T08:18:06.875Z,316.93
2019-03-21T08:19:06.854Z,315.23
2019-03-21T08:20:06.830Z,315.31
2019-03-21T08:21:06.822Z,314.95
2019-03-21T08:22:06.816Z,315.31
2019-03-21T08:23:06.812Z,314.90
2019-03-21T08:24:06.828Z,315.57
2019-03-21T08:25:06.811Z,315.19
2019-03-21T08:26:06.789Z,314.67
2019-03-21T08:27:06.774Z,314.99
2019-03-21T08:28:06.775Z,315.27
2019-03-21T08:29:06.729Z,315.82
2019-03-21T08:30:06.752Z,316.27
2019-03-21T08:31:06.728Z,315.91
2019-03-21T08:32:06.712Z,315.70
2019-03-21T08:33:06.684Z,315.16
2019-03-21T08:34:06.682Z,315.16
2019-03-21T08:35:06.678Z,315.74
2019-03-21T08:36:06.673Z,315.77
2019-03-21T08:37:06.666Z,315.41
2019-03-21T08:38:06.643Z,314.73
2019-03-21T08:39:06.636Z,315.51
2019-03-21T08:40:06.614Z,315.90
2019-03-21T08:41:06.627Z,315.24
2019-03-21T08:42:06.586Z,314.64
2019-03-21T08:43:06.582Z,315.68
2019-03-21T08:44:06.589Z,315.82
2019-03-21T08:45:06.556Z,316.71
2019-03-21T08:46:06.580Z,315.95
2019-03-21T08:47:06.556Z,315.67
2019-03-21T08:48:06.523Z,315.76
2019-03-21T08:49:06.513Z,314.82
2019-03-21T08:50:06.514Z,314.28
2019-03-21T08:51:08.583Z,315.40
2019-03-21T08:52:06.495Z,315.94
2019-03-21T08:53:06.459Z,314.91
2019-03-21T08:54:06.453Z,314.78
2019-03-21T08:55:06.452Z,314.65
2019-03-21T08:56:06.447Z,316.07
2019-03-21T08:57:06.450Z,315.89
2019-03-21T08:58:06.417Z,315.59
2019-03-21T08:59:06.394Z,315.57
2019-03-21T09:00:06.401Z,316.17
2019-03-21T09:01:06.372Z,316.13
2019-03-21T09:02:06.406Z,316.55
2019-03-21T09:03:06.374Z,315.25
2019-03-21T09:04:06.350Z,315.60
2019-03-21T09:05:06.326Z,314.54
2019-03-21T09:06:06.322Z,314.60
2019-03-21T09:07:06.325Z,314.52
2019-03-21T09:08:06.339Z,314.56
2019-03-21T09:09:06.293Z,314.79
2019-03-21T09:10:08.017Z,314.28
2019-03-21T09:11:06.271Z,314.20
2019-03-21T09:12:06.259Z,315.14
2019-03-21T09:13:06.275Z,314.54
2019-03-21T09:14:06.236Z,314.88
2019-03-21T09:15:08.119Z,315.50
2019-03-21T09:16:06.222Z,315.08
2019-03-21T09:17:06.211Z,315.45
2019-03-21T09:18:06.194Z,314.07
2019-03-21T09:19:06.296Z,315.06
2019-03-21T09:20:06.161Z,314.41
2019-03-21T09:21:06.164Z,314.14
2019-03-21T09:22:06.173Z,313.19
2019-03-21T09:23:06.148Z,313.91
2019-03-21T09:24:06.371Z,313.58
2019-03-21T09:25:06.149Z,313.97
2019-03-21T09:26:06.100Z,313.70
2019-03-21T09:27:06.103Z,314.32
2019-03-21T09:28:06.081Z,315.43
2019-03-21T09:29:06.080Z,314.72
2019-03-21T09:30:06.065Z,313.91
2019-03-21T09:31:06.072Z,315.95
2019-03-21T09:32:06.040Z,314.71
2019-03-21T09:33:06.017Z,314.90
2019-03-21T09:34:06.011Z,314.24
2019-03-21T09:35:06.012Z,315.06
2019-03-21T09:36:06.034Z,314.85
2019-03-21T09:37:05.988Z,314.93
2019-03-21T09:38:05.972Z,313.24
2019-03-21T09:39:05.957Z,314.90
2019-03-21T09:40:05.952Z,314.41
2019-03-21T09:41:05.936Z,313.97
2019-03-21T09:42:05.954Z,314.82
2019-03-21T09:43:05.907Z,314.94
2019-03-21T09:44:05.892Z,314.44
2019-03-21T09:45:05.890Z,314.21
2019-03-21T09:46:05.879Z,313.02
2019-03-21T09:47:05.908Z,312.75
2019-03-21T09:48:05.866Z,312.52
2019-03-21T09:49:05.856Z,312.86
2019-03-21T09:50:05.843Z,312.61
2019-03-21T09:51:05.822Z,312.94
2019-03-21T09:52:05.828Z,313.78
2019-03-21T09:53:05.834Z,313.99
2019-03-21T09:54:09.927Z,313.36
2019-03-21T09:55:05.783Z,313.78
2019-03-21T09:56:05.761Z,313.08
2019-03-21T09:57:05.750Z,313.17
2019-03-21T09:58:05.784Z,313.38
2019-03-21T09:59:05.743Z,312.73
2019-03-21T10:00:05.736Z,313.15
2019-03-21T10:01:05.801Z,312.87
2019-03-21T10:02:05.737Z,313.05
2019-03-21T10:03:05.748Z,313.11
2019-03-21T10:04:05.706Z,313.01
2019-03-21T10:05:05.668Z,312.95
2019-03-21T10:06:05.664Z,313.14
2019-03-21T10:07:05.663Z,312.82
2019-03-21T10:08:05.646Z,313.11
2019-03-21T10:09:05.644Z,312.30
2019-03-21T10:10:05.619Z,312.60
2019-03-21T10:11:05.605Z,312.28
2019-03-21T10:12:05.602Z,312.45
2019-03-21T10:13:05.683Z,312.10
2019-03-21T10:14:05.603Z,311.96
2019-03-21T10:15:05.563Z,311.76
2019-03-21T10:16:05.543Z,312.16
2019-03-21T10:17:05.543Z,312.55
2019-03-21T10:18:05.545Z,312.40
2019-03-21T10:19:05.521Z,312.65
2019-03-21T10:20:05.518Z,312.69
2019-03-21T10:21:05.530Z,313.75
2019-03-21T10:22:05.510Z,313.85
2019-03-21T10:23:05.473Z,314.15
2019-03-21T10:24:05.483Z,314.25
2019-03-21T10:25:05.462Z,313.84
2019-03-21T10:26:05.452Z,313.42
2019-03-21T10:27:05.580Z,313.30
2019-03-21T10:28:05.429Z,313.57
2019-03-21T10:29:05.406Z,313.23
2019-03-21T10:30:05.395Z,314.80
2019-03-21T10:31:05.393Z,313.72
2019-03-21T10:32:13.858Z,313.34
2019-03-21T10:33:06.492Z,313.50
2019-03-21T10:34:05.366Z,314.53
2019-03-21T10:35:05.366Z,313.58
2019-03-21T10:36:05.331Z,313.39
2019-03-21T10:37:05.315Z,313.84
2019-03-21T10:38:05.335Z,316.76
2019-03-21T10:39:05.304Z,315.42
2019-03-21T10:40:05.303Z,312.91
2019-03-21T10:41:05.281Z,313.17
2019-03-21T10:42:05.263Z,312.09
2019-03-21T10:43:05.343Z,312.06
2019-03-21T10:44:05.255Z,313.26
2019-03-21T10:45:05.240Z,312.48
2019-03-21T10:46:05.238Z,312.17
2019-03-21T10:47:05.215Z,312.43
2019-03-21T10:48:05.193Z,313.11
2019-03-21T10:49:05.218Z,314.57
2019-03-21T10:50:05.201Z,314.95
2019-03-21T10:51:05.168Z,314.31
2019-03-21T10:52:05.165Z,313.50
2019-03-21T10:53:05.152Z,312.42
2019-03-21T10:54:05.168Z,314.28
2019-03-21T10:55:05.140Z,316.95
2019-03-21T10:56:05.107Z,314.02
2019-03-21T10:57:05.113Z,313.59
2019-03-21T10:58:05.107Z,314.33
2019-03-21T10:59:05.073Z,314.10
2019-03-21T11:00:05.095Z,312.97
2019-03-21T11:01:05.071Z,312.07
2019-03-21T11:02:07.468Z,312.23
2019-03-21T11:03:05.044Z,312.50
2019-03-21T11:04:05.068Z,311.84
2019-03-21T11:05:05.026Z,313.09
2019-03-21T11:06:05.028Z,312.98
2019-03-21T11:07:04.996Z,311.92
2019-03-21T11:08:04.981Z,312.81
2019-03-21T11:09:04.982Z,312.72
2019-03-21T11:10:04.956Z,312.01
2019-03-21T11:11:04.990Z,312.08
2019-03-21T11:12:04.956Z,311.82
2019-03-21T11:13:04.918Z,311.31
2019-03-21T11:14:04.993Z,310.98
2019-03-21T11:15:04.908Z,312.01
2019-03-21T11:16:04.934Z,311.68
2019-03-21T11:17:04.976Z,311.48
2019-03-21T11:18:04.889Z,311.71
2019-03-21T11:19:04.866Z,311.52
2019-03-21T11:20:04.902Z,312.94
2019-03-21T11:21:04.836Z,311.55
2019-03-21T11:22:06.584Z,312.47
2019-03-21T11:23:04.818Z,311.97
2019-03-21T11:24:04.803Z,310.84
2019-03-21T11:25:04.805Z,312.21
2019-03-21T11:26:04.783Z,311.47
2019-03-21T11:27:04.796Z,312.15
2019-03-21T11:28:04.758Z,312.03
2019-03-21T11:29:04.752Z,311.75
2019-03-21T11:30:15.443Z,312.12
2019-03-21T11:31:05.719Z,311.54
2019-03-21T11:32:04.714Z,311.99
2019-03-21T11:33:04.725Z,312.20
2019-03-21T11:34:04.691Z,312.36
2019-03-21T11:35:04.685Z,312.99
2019-03-21T11:36:04.673Z,313.80
2019-03-21T11:37:04.664Z,313.05
2019-03-21T11:38:04.691Z,312.73
2019-03-21T11:39:04.643Z,312.75
2019-03-21T11:40:04.618Z,312.97
2019-03-21T11:41:04.615Z,312.54
2019-03-21T11:42:04.618Z,313.20
2019-03-21T11:43:04.614Z,313.34
2019-03-21T11:44:04.625Z,313.11
2019-03-21T11:45:04.560Z,313.55
2019-03-21T11:46:04.572Z,312.12
2019-03-21T11:47:04.558Z,311.84
2019-03-21T11:48:04.555Z,311.82
2019-03-21T11:49:04.534Z,311.88
2019-03-21T11:50:04.537Z,312.26
2019-03-21T11:51:04.512Z,313.27
2019-03-21T11:52:04.493Z,312.69
2019-03-21T11:53:04.477Z,313.32
2019-03-21T11:54:04.458Z,312.86
2019-03-21T11:55:04.503Z,313.09
2019-03-21T11:56:04.451Z,311.80
2019-03-21T11:57:04.460Z,313.92
2019-03-21T11:58:04.431Z,313.51
2019-03-21T11:59:04.419Z,312.99
2019-03-21T12:00:04.418Z,313.05
2019-03-21T12:01:04.410Z,312.69
2019-03-21T12:02:04.391Z,313.76
2019-03-21T12:03:04.520Z,311.87
2019-03-21T12:04:04.363Z,312.30
2019-03-21T12:05:04.342Z,312.27
2019-03-21T12:06:04.350Z,312.48
2019-03-21T12:07:04.332Z,312.41
2019-03-21T12:08:04.318Z,314.00
2019-03-21T12:09:04.305Z,313.48
2019-03-21T12:10:04.302Z,313.92
2019-03-21T12:11:04.302Z,312.82
2019-03-21T12:12:04.277Z,312.94
2019-03-21T12:13:04.260Z,313.88
2019-03-21T12:14:04.248Z,314.87
2019-03-21T12:15:04.238Z,315.81
2019-03-21T12:16:04.242Z,315.38
2019-03-21T12:17:04.255Z,315.09
2019-03-21T12:18:04.200Z,311.35
2019-03-21T12:19:04.190Z,312.75
2019-03-21T12:20:04.207Z,311.85
2019-03-21T12:21:04.179Z,311.98
2019-03-21T12:22:04.180Z,311.77
2019-03-21T12:23:04.165Z,311.85
2019-03-21T12:24:04.123Z,311.75
2019-03-21T12:25:04.116Z,311.53
2019-03-21T12:26:04.112Z,311.48
2019-03-21T12:27:04.128Z,312.63
2019-03-21T12:28:04.094Z,312.31